Time;durP1;ratioP1;P1;durP2;ratioP2;P2;SDS_P1;SDS_P2;PMS_P1;PMS_P2;Temp;Humidity;BMP_temperature;BMP_pressure;BME280_temperature;BME280_humidity;BME280_pressure;Samples;Min_cycle;Max_cycle;Signal;HPM_P1;HPM_P2
2022/06/08 00:02:10;;;;;;;1.00;0.90;;;15.40;99.90;;;;;;5072250;28;20758;-46
2022/06/08 00:04:37;;;;;;;1.60;1.30;;;15.40;99.90;;;;;;5082648;28;20185;-46
2022/06/08 00:07:05;;;;;;;3.20;1.33;;;15.30;99.90;;;;;;5083162;28;20204;-46
2022/06/08 00:09:34;;;;;;;1.03;1.03;;;15.30;99.90;;;;;;5085223;28;20674;-46
2022/06/08 00:12:01;;;;;;;2.13;1.00;;;15.20;99.90;;;;;;5074279;28;20205;-46
2022/06/08 00:14:28;;;;;;;0.70;0.70;;;15.20;99.90;;;;;;5088296;28;20205;-46
2022/06/08 00:16:55;;;;;;;1.57;0.93;;;15.20;99.90;;;;;;5076186;28;20204;-46
2022/06/08 00:19:24;;;;;;;0.70;0.70;;;15.20;99.90;;;;;;5074276;28;20212;-46
2022/06/08 00:21:52;;;;;;;1.43;0.90;;;15.20;99.90;;;;;;5073503;28;20250;-45
2022/06/08 00:24:19;;;;;;;1.23;0.70;;;15.20;99.90;;;;;;5081012;28;20663;-45
2022/06/08 00:26:48;;;;;;;0.57;0.57;;;15.20;99.90;;;;;;5088705;28;20283;-46
2022/06/08 00:29:15;;;;;;;0.60;0.60;;;15.20;99.90;;;;;;5080199;28;20212;-46
2022/06/08 00:31:42;;;;;;;0.77;0.77;;;15.20;99.90;;;;;;5078696;28;20571;-45
2022/06/08 00:34:09;;;;;;;1.67;0.80;;;15.20;99.90;;;;;;5084186;28;20680;-46
2022/06/08 00:36:37;;;;;;;0.70;0.70;;;15.10;99.90;;;;;;5093756;28;20212;-46
2022/06/08 00:39:04;;;;;;;0.70;0.70;;;15.10;99.90;;;;;;5093795;28;20554;-46
2022/06/08 00:41:43;;;;;;;0.70;0.70;;;15.10;99.90;;;;;;5086143;28;20235;-45
2022/06/08 00:44:17;;;;;;;0.97;0.50;;;15.10;99.90;;;;;;5067240;28;20204;-45
2022/06/08 00:46:45;;;;;;;0.63;0.57;;;15.10;99.90;;;;;;5081783;28;20195;-46
2022/06/08 00:49:21;;;;;;;0.77;0.77;;;15.10;99.90;;;;;;5093787;28;20196;-46
2022/06/08 00:51:49;;;;;;;0.90;0.80;;;15.10;99.90;;;;;;5111783;22;20228;-50
2022/06/08 00:54:25;;;;;;;1.00;0.70;;;15.10;99.90;;;;;;5082381;28;20216;-50
2022/06/08 00:56:56;;;;;;;0.80;0.80;;;15.10;99.90;;;;;;5083090;28;20726;-50
2022/06/08 00:59:24;;;;;;;1.53;0.77;;;15.10;99.90;;;;;;5078772;28;20201;-50
2022/06/08 01:01:51;;;;;;;2.40;0.60;;;15.10;99.90;;;;;;5087635;28;20221;-50
2022/06/08 01:04:20;;;;;;;0.73;0.73;;;15.10;99.90;;;;;;5082030;28;20197;-50
2022/06/08 01:06:53;;;;;;;0.80;0.80;;;15.10;99.90;;;;;;5075492;28;20201;-50
2022/06/08 01:09:27;;;;;;;1.87;1.00;;;15.10;99.90;;;;;;5072835;28;20228;-50
2022/06/08 01:11:57;;;;;;;1.23;1.00;;;15.10;99.90;;;;;;5077231;28;20229;-50
2022/06/08 01:14:26;;;;;;;1.63;0.97;;;15.20;99.90;;;;;;5080862;28;20217;-50
2022/06/08 01:16:58;;;;;;;1.90;0.90;;;15.20;99.90;;;;;;5072776;28;20201;-50
2022/06/08 01:19:25;;;;;;;1.07;0.80;;;15.20;99.90;;;;;;5084216;28;20220;-49
2022/06/08 01:21:59;;;;;;;1.33;1.00;;;15.20;99.90;;;;;;5085290;28;20698;-50
2022/06/08 01:24:27;;;;;;;1.67;0.83;;;15.10;99.90;;;;;;5076692;28;20216;-50
2022/06/08 01:27:12;;;;;;;1.77;1.10;;;15.00;99.90;;;;;;5090492;28;20207;-50
2022/06/08 01:29:44;;;;;;;3.10;0.93;;;15.00;99.90;;;;;;5092635;28;20735;-50
2022/06/08 01:32:29;;;;;;;1.20;1.10;;;15.00;99.90;;;;;;5091260;28;20197;-51
2022/06/08 01:35:10;;;;;;;2.20;1.50;;;15.00;99.90;;;;;;5073901;28;20217;-49
2022/06/08 01:37:49;;;;;;;1.80;1.40;;;15.00;99.90;;;;;;5092630;28;20560;-50
2022/06/08 01:40:35;;;;;;;2.10;1.10;;;15.10;99.90;;;;;;5092843;28;20315;-49
2022/06/08 01:43:26;;;;;;;1.20;1.20;;;15.00;99.90;;;;;;5087913;28;20674;-50
2022/06/08 01:46:02;;;;;;;1.43;1.33;;;15.00;99.90;;;;;;5074308;28;20196;-49
2022/06/08 01:48:57;;;;;;;2.20;1.10;;;14.90;99.90;;;;;;5079377;28;20285;-49
2022/06/08 01:51:38;;;;;;;1.13;1.13;;;14.90;99.90;;;;;;5071641;28;20225;-49
2022/06/08 01:54:13;;;;;;;1.60;0.80;;;14.80;99.90;;;;;;5089214;28;20589;-50
2022/06/08 01:56:48;;;;;;;1.73;1.33;;;14.90;99.90;;;;;;5074993;28;20193;-50
2022/06/08 01:59:28;;;;;;;2.93;1.33;;;14.80;99.90;;;;;;5072142;28;20198;-49
2022/06/08 02:02:03;;;;;;;3.97;1.50;;;14.80;99.90;;;;;;5075428;28;20224;-50
2022/06/08 02:04:36;;;;;;;1.13;1.10;;;14.80;99.90;;;;;;5090934;28;20199;-50
2022/06/08 02:07:13;;;;;;;1.10;1.00;;;14.80;99.90;;;;;;5072475;28;20250;-50
2022/06/08 02:09:47;;;;;;;2.40;1.07;;;14.80;99.90;;;;;;5080846;28;20207;-49
2022/06/08 02:12:15;;;;;;;1.50;1.17;;;14.80;99.90;;;;;;5077850;28;20224;-50
2022/06/08 02:14:48;;;;;;;2.23;1.30;;;14.80;99.90;;;;;;5078637;28;20216;-50
2022/06/08 02:17:23;;;;;;;1.13;1.13;;;14.80;99.90;;;;;;5080020;28;20292;-50
2022/06/08 02:19:57;;;;;;;1.33;1.07;;;14.70;99.90;;;;;;5071558;28;20693;-50
2022/06/08 02:22:28;;;;;;;3.20;1.63;;;14.70;99.90;;;;;;5075371;28;20254;-50
2022/06/08 02:25:11;;;;;;;1.20;1.20;;;14.70;99.90;;;;;;5081427;28;20197;-50
2022/06/08 02:27:42;;;;;;;1.10;1.00;;;14.70;99.90;;;;;;5089962;28;20208;-50
2022/06/08 02:30:14;;;;;;;1.33;1.20;;;14.70;99.90;;;;;;5083280;28;20412;-50
2022/06/08 02:35:40;;;;;;;2.93;1.53;;;14.70;99.90;;;;;;5076741;28;20639;-50
2022/06/08 02:38:11;;;;;;;2.77;1.07;;;14.70;99.90;;;;;;5079679;28;20188;-49
2022/06/08 02:40:45;;;;;;;1.53;1.00;;;14.70;99.90;;;;;;5071211;28;20278;-50
2022/06/08 02:43:17;;;;;;;1.67;0.97;;;14.60;99.90;;;;;;5082350;28;20197;-50
2022/06/08 02:45:46;;;;;;;0.87;0.87;;;14.60;99.90;;;;;;5083306;28;20677;-50
2022/06/08 02:48:14;;;;;;;1.13;1.00;;;14.60;99.90;;;;;;5086885;28;20197;-50
2022/06/08 02:50:50;;;;;;;0.90;0.90;;;14.60;99.90;;;;;;5085565;28;20234;-50
2022/06/08 02:53:43;;;;;;;0.93;0.93;;;14.60;99.90;;;;;;5078154;28;20272;-50
2022/06/08 02:56:19;;;;;;;1.00;0.90;;;14.60;99.90;;;;;;5082092;28;20221;-50
2022/06/08 02:58:50;;;;;;;1.17;1.10;;;14.60;99.90;;;;;;5079177;28;20221;-50
2022/06/08 03:01:22;;;;;;;1.07;1.00;;;14.50;99.90;;;;;;5085335;28;20729;-50
2022/06/08 03:03:53;;;;;;;0.87;0.87;;;14.40;99.90;;;;;;5082069;28;20200;-50
2022/06/08 03:06:25;;;;;;;0.73;0.73;;;14.40;99.90;;;;;;5084517;28;20197;-50
2022/06/08 03:08:56;;;;;;;0.87;0.73;;;14.40;99.90;;;;;;5095424;28;20208;-50
2022/06/08 03:11:27;;;;;;;3.37;1.17;;;14.30;99.90;;;;;;5094240;28;20232;-50
2022/06/08 03:13:59;;;;;;;1.13;0.90;;;14.20;99.90;;;;;;5086929;28;20207;-50
2022/06/08 03:16:29;;;;;;;2.00;1.40;;;14.30;99.90;;;;;;5093154;28;20716;-50
2022/06/08 03:18:56;;;;;;;1.00;1.00;;;14.30;99.90;;;;;;5082571;28;20228;-50
2022/06/08 03:21:23;;;;;;;5.53;1.27;;;14.30;99.90;;;;;;5086035;28;20224;-50
2022/06/08 03:23:50;;;;;;;1.23;1.00;;;14.30;99.90;;;;;;5090139;28;20200;-49
2022/06/08 03:26:18;;;;;;;1.20;1.20;;;14.30;99.90;;;;;;5083347;28;20201;-49
2022/06/08 03:28:46;;;;;;;2.70;1.40;;;14.30;99.90;;;;;;5086075;28;20193;-49
2022/06/08 03:31:14;;;;;;;3.80;1.00;;;14.20;99.90;;;;;;5094776;28;20224;-50
2022/06/08 03:33:41;;;;;;;1.60;1.53;;;14.30;99.90;;;;;;5081933;28;20204;-49
2022/06/08 03:36:09;;;;;;;1.53;1.33;;;14.20;99.90;;;;;;5077732;28;20280;-49
2022/06/08 03:38:36;;;;;;;1.17;1.10;;;14.20;99.90;;;;;;5086394;28;20201;-49
2022/06/08 03:41:03;;;;;;;3.23;1.23;;;14.10;99.90;;;;;;5077122;28;20228;-50
2022/06/08 03:43:34;;;;;;;1.20;1.10;;;14.10;99.90;;;;;;5081005;28;20255;-50
2022/06/08 03:46:04;;;;;;;3.27;1.70;;;14.10;99.90;;;;;;5085456;28;20657;-50
2022/06/08 03:48:33;;;;;;;1.17;1.07;;;14.10;99.90;;;;;;5090707;28;20203;-49
2022/06/08 03:51:02;;;;;;;1.20;0.90;;;14.10;99.90;;;;;;5085519;28;20244;-49
2022/06/08 03:53:34;;;;;;;1.83;1.70;;;14.10;99.90;;;;;;5078641;28;20338;-50
2022/06/08 03:56:04;;;;;;;2.87;1.53;;;14.10;99.90;;;;;;5083688;28;20698;-49
2022/06/08 03:58:33;;;;;;;1.43;1.33;;;14.20;99.90;;;;;;5081401;28;20212;-49
2022/06/08 04:01:03;;;;;;;0.90;0.90;;;14.20;99.90;;;;;;5073412;28;20213;-49
2022/06/08 04:03:31;;;;;;;8.13;3.00;;;14.30;99.90;;;;;;5073435;28;20189;-49
2022/06/08 04:06:00;;;;;;;4.13;1.10;;;14.40;99.90;;;;;;5079359;28;20673;-50
2022/06/08 04:08:28;;;;;;;1.67;1.53;;;14.30;99.90;;;;;;5081368;28;20227;-50
2022/06/08 04:10:55;;;;;;;1.73;1.63;;;14.40;99.90;;;;;;5088238;28;20225;-49
2022/06/08 04:13:23;;;;;;;1.23;1.23;;;14.40;99.90;;;;;;5089625;28;20196;-50
2022/06/08 04:15:50;;;;;;;2.37;1.33;;;14.50;99.90;;;;;;5085534;28;20228;-50
2022/06/08 04:18:21;;;;;;;1.67;1.50;;;14.50;99.90;;;;;;5079554;28;20280;-50
2022/06/08 04:20:51;;;;;;;4.20;1.37;;;14.60;99.90;;;;;;5083975;28;20220;-50
2022/06/08 04:23:20;;;;;;;2.40;1.30;;;14.70;99.90;;;;;;5073931;28;20200;-50
2022/06/08 04:25:48;;;;;;;2.77;0.93;;;14.60;99.90;;;;;;5076375;28;20208;-49
2022/06/08 04:28:15;;;;;;;2.57;1.63;;;14.60;99.90;;;;;;5082289;28;21249;-49
2022/06/08 04:30:43;;;;;;;1.13;1.00;;;14.60;99.90;;;;;;5087193;28;20216;-49
2022/06/08 04:33:11;;;;;;;3.10;0.90;;;14.80;99.90;;;;;;5091559;28;20246;-50
2022/06/08 04:35:39;;;;;;;1.80;1.37;;;14.80;99.90;;;;;;5082322;28;20723;-49
2022/06/08 04:38:07;;;;;;;1.10;1.00;;;15.00;99.90;;;;;;5079271;28;20203;-49
2022/06/08 04:40:35;;;;;;;6.93;1.37;;;15.00;99.90;;;;;;5076100;28;20213;-49
2022/06/08 04:43:03;;;;;;;1.80;1.40;;;15.10;99.90;;;;;;5089526;28;20201;-49
2022/06/08 04:45:30;;;;;;;1.53;1.20;;;15.20;99.90;;;;;;5084060;28;20784;-49
2022/06/08 04:47:57;;;;;;;2.87;1.30;;;15.30;99.90;;;;;;5083101;28;20209;-49
2022/06/08 04:50:25;;;;;;;0.90;0.80;;;15.40;99.90;;;;;;5090016;28;20228;-49
2022/06/08 04:52:53;;;;;;;2.97;0.97;;;15.40;99.90;;;;;;5082316;28;20201;-50
2022/06/08 04:55:22;;;;;;;4.33;0.97;;;15.50;99.90;;;;;;5074776;28;20221;-49
2022/06/08 04:57:49;;;;;;;1.00;1.00;;;15.50;99.90;;;;;;5080435;28;20667;-49
2022/06/08 05:00:20;;;;;;;2.83;0.90;;;15.70;99.90;;;;;;5090025;28;20227;-49
2022/06/08 05:02:48;;;;;;;1.47;0.97;;;16.00;99.90;;;;;;5077738;28;20208;-49
2022/06/08 05:05:19;;;;;;;1.53;1.20;;;16.20;99.90;;;;;;5081622;28;20281;-49
2022/06/08 05:07:46;;;;;;;1.83;0.97;;;16.10;99.90;;;;;;5082876;28;20209;-49
2022/06/08 05:10:14;;;;;;;2.03;1.00;;;16.00;99.90;;;;;;5085970;28;20220;-49
2022/06/08 05:12:42;;;;;;;1.10;1.10;;;16.00;99.90;;;;;;5075517;28;20251;-49
2022/06/08 05:15:13;;;;;;;0.80;0.80;;;16.00;99.90;;;;;;5073871;28;20213;-50
2022/06/08 05:17:41;;;;;;;2.63;0.80;;;16.10;99.90;;;;;;5078368;28;20203;-50
2022/06/08 05:20:09;;;;;;;1.07;1.00;;;16.90;99.90;;;;;;5081268;28;20248;-49
2022/06/08 05:22:37;;;;;;;3.50;0.97;;;18.10;99.90;;;;;;5085280;28;20246;-50
2022/06/08 05:25:05;;;;;;;2.47;0.80;;;19.20;99.90;;;;;;5079288;28;20247;-50
2022/06/08 05:27:34;;;;;;;0.70;0.70;;;20.40;99.90;;;;;;5082623;28;20194;-50
2022/06/08 05:30:01;;;;;;;2.23;1.30;;;21.20;99.90;;;;;;5084795;28;20196;-50
2022/06/08 05:32:28;;;;;;;0.70;0.70;;;21.80;99.90;;;;;;5077480;28;20209;-50
2022/06/08 05:34:55;;;;;;;1.00;0.80;;;22.50;99.90;;;;;;5081393;28;20211;-50
2022/06/08 05:37:22;;;;;;;1.93;0.90;;;22.70;99.90;;;;;;5082470;28;20196;-51
2022/06/08 05:39:49;;;;;;;0.57;0.57;;;23.00;99.90;;;;;;5077612;28;20697;-50
2022/06/08 05:42:16;;;;;;;2.13;1.53;;;23.60;99.90;;;;;;5087165;28;20271;-50
2022/06/08 05:44:44;;;;;;;2.30;1.07;;;23.80;99.90;;;;;;5085590;28;20209;-50
2022/06/08 05:47:12;;;;;;;0.60;0.60;;;23.40;99.90;;;;;;5086454;28;20189;-50
2022/06/08 05:49:40;;;;;;;1.07;0.80;;;23.70;99.90;;;;;;5083608;28;20192;-50
2022/06/08 05:52:07;;;;;;;1.13;0.63;;;23.90;99.90;;;;;;5084380;28;20764;-50
2022/06/08 05:54:34;;;;;;;0.73;0.70;;;24.70;99.90;;;;;;5078212;28;20280;-50
2022/06/08 05:57:03;;;;;;;1.87;0.70;;;24.80;99.90;;;;;;5079436;28;20285;-50
2022/06/08 05:59:30;;;;;;;0.70;0.70;;;25.10;99.90;;;;;;5082353;28;20228;-50
2022/06/08 06:01:59;;;;;;;4.33;1.07;;;25.70;99.90;;;;;;5076000;28;20213;-50
2022/06/08 06:04:26;;;;;;;1.90;0.60;;;25.60;99.90;;;;;;5087521;28;20770;-50
2022/06/08 06:06:53;;;;;;;0.90;0.90;;;25.10;99.90;;;;;;5077051;28;20280;-50
2022/06/08 06:09:21;;;;;;;0.80;0.80;;;25.10;99.90;;;;;;5075289;28;20208;-50
2022/06/08 06:11:49;;;;;;;2.17;0.73;;;25.10;99.90;;;;;;5078629;28;20336;-50
2022/06/08 06:14:17;;;;;;;0.80;0.80;;;24.60;99.90;;;;;;5085997;28;20228;-50
2022/06/08 06:16:44;;;;;;;0.87;0.60;;;25.20;99.90;;;;;;5084856;28;20721;-50
2022/06/08 06:19:12;;;;;;;4.33;0.70;;;24.90;99.90;;;;;;5071604;28;20231;-50
2022/06/08 06:21:40;;;;;;;3.20;1.17;;;25.40;99.90;;;;;;5080888;28;20240;-50
2022/06/08 06:24:08;;;;;;;2.27;1.03;;;25.20;99.90;;;;;;5078710;28;20204;-50
2022/06/08 06:26:35;;;;;;;0.70;0.70;;;25.30;99.90;;;;;;5079098;28;20197;-50
2022/06/08 06:29:02;;;;;;;1.50;0.80;;;25.20;99.90;;;;;;5083584;28;20459;-50
2022/06/08 06:31:35;;;;;;;1.23;0.87;;;25.00;99.90;;;;;;5087316;28;20813;-50
2022/06/08 06:34:02;;;;;;;1.23;1.13;;;25.00;99.90;;;;;;5074910;28;20201;-50
2022/06/08 06:36:31;;;;;;;2.53;1.37;;;25.30;99.90;;;;;;5079531;28;20244;-50
2022/06/08 06:38:58;;;;;;;2.57;1.13;;;25.50;99.90;;;;;;5081834;28;20197;-50
2022/06/08 06:41:26;;;;;;;1.20;1.10;;;25.90;99.90;;;;;;5089526;28;20614;-51
2022/06/08 06:43:53;;;;;;;1.80;0.93;;;26.00;99.90;;;;;;5090098;28;20714;-50
2022/06/08 06:46:20;;;;;;;3.50;1.00;;;26.10;99.90;;;;;;5084934;28;20196;-50
2022/06/08 06:48:47;;;;;;;1.50;1.40;;;25.80;99.90;;;;;;5080284;28;20254;-50
2022/06/08 06:51:14;;;;;;;0.70;0.70;;;24.80;99.90;;;;;;5096138;22;20229;-46
2022/06/08 06:53:43;;;;;;;1.02;1.02;;;25.10;99.90;;;;;;5049815;28;20198;-46
2022/06/08 06:56:10;;;;;;;1.20;1.10;;;26.00;99.90;;;;;;5050101;28;20228;-46
2022/06/08 06:58:38;;;;;;;0.90;0.90;;;25.80;99.90;;;;;;5050536;28;20190;-46
2022/06/08 07:01:06;;;;;;;1.90;0.90;;;25.80;99.90;;;;;;5050334;28;20225;-46
2022/06/08 07:03:33;;;;;;;1.00;0.93;;;25.90;99.90;;;;;;5038881;28;20260;-46
2022/06/08 07:06:00;;;;;;;0.75;0.75;;;26.60;99.90;;;;;;5034285;28;20194;-47
2022/06/08 07:08:27;;;;;;;0.75;0.75;;;26.70;99.90;;;;;;5049635;28;20225;-46
2022/06/08 07:13:41;;;;;;;0.60;0.60;;;27.40;99.90;;;;;;5050532;28;20208;-47
2022/06/08 07:16:08;;;;;;;0.85;0.60;;;27.60;99.90;;;;;;5047463;28;20217;-47
2022/06/08 07:18:35;;;;;;;0.70;0.65;;;27.70;99.90;;;;;;5050374;28;20193;-47
2022/06/08 07:21:03;;;;;;;0.63;0.63;;;28.20;99.90;;;;;;5036651;28;20708;-46
2022/06/08 07:23:30;;;;;;;0.55;0.55;;;28.70;99.90;;;;;;5031186;28;20225;-47
2022/06/08 07:25:58;;;;;;;0.98;0.68;;;29.00;99.90;;;;;;5033977;28;20248;-46
2022/06/08 07:28:26;;;;;;;2.75;1.00;;;28.70;99.90;;;;;;5050407;28;20268;-47
2022/06/08 07:30:53;;;;;;;2.72;0.98;;;28.60;99.90;;;;;;5050596;28;20217;-47
2022/06/08 07:33:20;;;;;;;1.52;0.95;;;28.90;99.90;;;;;;5050092;28;20663;-47
2022/06/08 07:35:48;;;;;;;3.42;0.82;;;29.00;99.90;;;;;;5047604;28;20627;-47
2022/06/08 07:38:15;;;;;;;0.80;0.80;;;29.40;99.90;;;;;;5049752;28;20221;-47
2022/06/08 07:40:42;;;;;;;1.90;0.60;;;29.70;99.90;;;;;;5047668;28;20221;-47
2022/06/08 07:43:10;;;;;;;0.63;0.63;;;29.60;99.90;;;;;;5040771;28;20255;-47
2022/06/08 07:45:37;;;;;;;3.72;0.77;;;29.80;99.90;;;;;;5046248;28;20221;-47
2022/06/08 07:50:49;;;;;;;1.15;0.40;;;29.90;99.90;;;;;;5049745;28;20228;-47
2022/06/08 07:53:16;;;;;;;1.38;0.60;;;29.60;99.90;;;;;;5047859;28;20263;-47
2022/06/08 07:55:43;;;;;;;0.43;0.43;;;29.60;99.90;;;;;;5047526;28;20209;-47
2022/06/08 07:58:11;;;;;;;1.23;0.40;;;29.60;99.90;;;;;;5051391;28;20209;-47
2022/06/08 08:00:43;;;;;;;1.77;0.55;;;29.80;99.90;;;;;;5052504;28;20222;-47
2022/06/08 08:03:10;;;;;;;1.23;0.77;;;29.00;99.90;;;;;;5048708;28;20208;-47
2022/06/08 08:05:37;;;;;;;0.65;0.65;;;29.20;99.90;;;;;;5051854;28;20206;-47
2022/06/08 08:08:05;;;;;;;1.33;0.50;;;29.40;99.90;;;;;;5050512;28;20661;-46
2022/06/08 08:10:32;;;;;;;1.55;0.55;;;29.60;99.90;;;;;;5052822;28;20201;-47
2022/06/08 08:12:59;;;;;;;1.10;0.60;;;29.40;99.90;;;;;;5050488;28;20210;-47
2022/06/08 08:15:28;;;;;;;0.73;0.60;;;29.80;99.90;;;;;;5051972;28;20197;-47
2022/06/08 08:17:56;;;;;;;2.30;0.70;;;30.00;99.90;;;;;;5052415;28;20314;-47
2022/06/08 08:20:24;;;;;;;4.22;0.60;;;30.30;99.90;;;;;;5052460;28;20737;-47
2022/06/08 08:22:51;;;;;;;1.30;0.63;;;29.90;99.70;;;;;;5052206;28;20198;-47
2022/06/08 08:25:19;;;;;;;1.10;0.50;;;30.40;96.50;;;;;;5052757;28;20615;-47
2022/06/08 08:27:47;;;;;;;1.88;0.43;;;30.10;95.50;;;;;;5051439;28;20206;-47
2022/06/08 08:30:16;;;;;;;0.73;0.30;;;30.20;96.80;;;;;;5052785;28;20208;-47
2022/06/08 08:32:45;;;;;;;0.85;0.40;;;30.00;97.60;;;;;;5053109;28;20276;-47
2022/06/08 08:35:13;;;;;;;0.28;0.20;;;30.00;92.70;;;;;;5034100;28;20210;-47
2022/06/08 08:37:40;;;;;;;0.60;0.50;;;29.70;96.30;;;;;;5051028;28;20792;-47
2022/06/08 08:40:14;;;;;;;1.40;0.40;;;30.00;97.30;;;;;;5052189;28;20256;-47
2022/06/08 08:42:41;;;;;;;0.43;0.40;;;29.70;95.30;;;;;;5030287;28;20236;-47
2022/06/08 08:45:13;;;;;;;1.15;0.50;;;29.80;93.50;;;;;;5051281;28;20231;-47
2022/06/08 08:47:59;;;;;;;1.17;0.30;;;29.60;92.70;;;;;;5052878;28;20198;-47
2022/06/08 08:50:33;;;;;;;0.63;0.63;;;29.60;92.50;;;;;;5046990;28;20198;-47
2022/06/08 08:53:07;;;;;;;1.67;0.40;;;29.90;95.90;;;;;;5051582;28;20241;-47
2022/06/08 08:55:41;;;;;;;0.75;0.52;;;30.20;91.50;;;;;;5052069;28;20197;-47
2022/06/08 08:58:14;;;;;;;0.70;0.40;;;30.40;91.10;;;;;;5035179;28;20232;-46
2022/06/08 09:00:44;;;;;;;2.60;0.40;;;29.60;94.30;;;;;;5048803;28;20213;-47
2022/06/08 09:03:30;;;;;;;2.38;0.50;;;29.10;95.80;;;;;;5048053;28;20198;-47
2022/06/08 09:06:00;;;;;;;0.35;0.35;;;28.90;97.50;;;;;;5049157;28;20307;-47
2022/06/08 09:08:27;;;;;;;1.02;0.60;;;28.90;93.60;;;;;;5051911;28;20201;-46
2022/06/08 09:10:58;;;;;;;0.50;0.50;;;28.80;93.30;;;;;;5050819;28;20256;-46
2022/06/08 09:13:30;;;;;;;0.40;0.40;;;28.60;97.50;;;;;;5050948;28;20198;-46
2022/06/08 09:15:59;;;;;;;1.33;0.35;;;28.70;94.00;;;;;;5050295;28;20687;-46
2022/06/08 09:18:36;;;;;;;1.95;0.38;;;28.80;93.90;;;;;;5050093;28;20581;-47
2022/06/08 09:21:29;;;;;;;1.02;0.30;;;28.60;94.70;;;;;;5051625;28;20226;-47
2022/06/08 09:23:58;;;;;;;1.77;0.60;;;28.30;92.00;;;;;;5051376;28;20229;-47
2022/06/08 09:26:32;;;;;;;3.35;0.60;;;28.20;93.70;;;;;;5051557;28;20579;-47
2022/06/08 09:29:02;;;;;;;3.42;0.70;;;28.60;98.20;;;;;;5050603;28;20671;-47
2022/06/08 09:31:33;;;;;;;1.95;0.43;;;28.60;95.20;;;;;;5051948;28;20213;-47
2022/06/08 09:34:27;;;;;;;0.90;0.30;;;27.80;93.20;;;;;;5050968;28;20735;-47
2022/06/08 09:37:13;;;;;;;1.77;0.57;;;27.20;93.70;;;;;;5030685;28;20233;-46
2022/06/08 09:39:41;;;;;;;1.77;0.88;;;27.20;98.90;;;;;;5047791;28;20690;-47
2022/06/08 09:42:22;;;;;;;0.82;0.30;;;27.70;95.40;;;;;;5050610;28;20790;-47
2022/06/08 09:44:58;;;;;;;1.40;0.65;;;27.30;93.30;;;;;;5049281;28;20221;-46
2022/06/08 09:53:20;;;;;;;1.65;0.75;;;26.70;95.30;;;;;;5041116;28;20683;-47
2022/06/08 09:56:01;;;;;;;0.82;0.50;;;26.80;96.20;;;;;;5044011;28;20202;-45
2022/06/08 09:58:51;;;;;;;0.43;0.43;;;26.70;95.60;;;;;;5049416;28;20634;-46
2022/06/08 10:01:26;;;;;;;0.73;0.50;;;26.00;96.70;;;;;;5044569;28;20222;-46
2022/06/08 10:04:21;;;;;;;4.63;0.83;;;25.40;97.10;;;;;;5032135;28;20756;-47
2022/06/08 10:06:58;;;;;;;1.80;0.50;;;25.40;98.60;;;;;;5043846;28;20194;-46
2022/06/08 10:09:31;;;;;;;2.80;0.60;;;25.90;97.30;;;;;;5049836;28;20546;-46
2022/06/08 10:12:10;;;;;;;0.93;0.50;;;25.30;97.60;;;;;;5031647;28;20704;-46
2022/06/08 10:14:44;;;;;;;1.87;0.70;;;25.70;97.60;;;;;;5041506;28;20606;-47
2022/06/08 10:17:17;;;;;;;1.43;0.40;;;26.40;97.60;;;;;;5049121;28;20216;-47
2022/06/08 10:19:57;;;;;;;0.40;0.40;;;27.00;96.90;;;;;;5048760;28;20226;-46
2022/06/08 10:22:28;;;;;;;0.55;0.55;;;27.40;97.70;;;;;;5050536;28;20734;-47
2022/06/08 10:25:01;;;;;;;3.20;0.57;;;27.40;95.60;;;;;;5050071;28;20256;-46
2022/06/08 10:27:35;;;;;;;1.65;0.52;;;27.20;94.30;;;;;;5043747;28;20599;-46
2022/06/08 10:30:14;;;;;;;1.90;0.50;;;26.40;95.70;;;;;;5046797;28;20244;-46
2022/06/08 10:32:47;;;;;;;1.87;0.40;;;26.10;95.50;;;;;;5049893;28;20209;-46
2022/06/08 10:35:22;;;;;;;1.67;0.50;;;26.20;94.70;;;;;;5045788;28;20280;-46
2022/06/08 10:37:51;;;;;;;1.40;0.70;;;26.00;96.40;;;;;;5048457;28;20221;-46
2022/06/08 10:40:21;;;;;;;2.37;0.77;;;25.60;98.80;;;;;;5036529;28;20205;-46
2022/06/08 10:42:50;;;;;;;1.10;0.60;;;25.40;98.10;;;;;;5049756;28;20202;-46
2022/06/08 10:45:52;;;;;;;1.60;0.40;;;24.70;99.80;;;;;;5043766;28;20201;-45
2022/06/08 10:48:36;;;;;;;0.70;0.40;;;24.30;99.60;;;;;;4967668;28;20753;-46
2022/06/08 10:51:30;;;;;;;1.43;0.60;;;24.50;99.90;;;;;;5042459;28;20318;-46
2022/06/08 10:56:55;;;;;;;0.47;0.47;;;24.30;99.50;;;;;;5049571;28;20690;-46
2022/06/08 10:59:25;;;;;;;2.40;0.50;;;24.30;99.60;;;;;;5047837;28;20198;-46
2022/06/08 11:02:27;;;;;;;2.00;1.00;;;24.10;98.90;;;;;;5050854;28;20221;-46
2022/06/08 11:05:13;;;;;;;1.07;0.40;;;24.20;96.40;;;;;;5049693;28;20241;-47
2022/06/08 11:08:17;;;;;;;0.63;0.40;;;24.00;99.40;;;;;;5050096;28;20197;-47
2022/06/08 11:11:00;;;;;;;3.00;0.50;;;24.20;98.50;;;;;;5025281;28;20225;-46
2022/06/08 11:13:35;;;;;;;1.63;0.67;;;24.40;98.40;;;;;;5042321;28;20267;-46
2022/06/08 11:16:11;;;;;;;1.17;0.53;;;24.60;97.40;;;;;;5045390;28;20693;-47
2022/06/08 11:18:43;;;;;;;1.60;0.40;;;24.90;99.00;;;;;;5046548;28;20245;-46
2022/06/08 11:21:28;;;;;;;0.47;0.40;;;24.80;99.90;;;;;;5044645;28;20225;-46
2022/06/08 11:23:59;;;;;;;0.67;0.40;;;25.10;97.40;;;;;;5030501;28;20281;-46
2022/06/08 11:26:46;;;;;;;3.20;1.13;;;25.00;95.20;;;;;;5045356;28;20194;-46
2022/06/08 11:29:40;;;;;;;0.50;0.50;;;25.00;94.30;;;;;;5051552;28;20205;-47
2022/06/08 11:32:35;;;;;;;2.10;0.40;;;25.30;93.40;;;;;;5052833;28;20213;-47
2022/06/08 11:35:23;;;;;;;0.50;0.30;;;25.60;94.30;;;;;;5044932;28;20225;-46
2022/06/08 11:37:59;;;;;;;0.40;0.40;;;25.60;96.60;;;;;;5049768;28;20222;-46
2022/06/08 11:40:30;;;;;;;1.50;0.33;;;25.60;94.50;;;;;;5054742;28;20205;-47
2022/06/08 11:43:16;;;;;;;0.73;0.27;;;25.80;97.60;;;;;;5053354;28;20198;-46
2022/06/08 11:45:47;;;;;;;0.90;0.57;;;25.70;92.60;;;;;;5052732;28;20236;-47
2022/06/08 11:48:16;;;;;;;0.63;0.30;;;25.50;96.20;;;;;;5053838;28;20198;-47
2022/06/08 11:50:48;;;;;;;0.63;0.40;;;25.60;94.70;;;;;;5054420;28;20287;-46
2022/06/08 11:53:18;;;;;;;0.97;0.83;;;25.40;94.70;;;;;;5054322;28;20293;-48
2022/06/08 11:55:55;;;;;;;0.63;0.30;;;25.30;95.00;;;;;;5043989;28;20269;-47
2022/06/08 11:58:27;;;;;;;1.23;0.50;;;25.10;95.40;;;;;;5056759;28;20222;-48
2022/06/08 12:00:59;;;;;;;1.93;0.70;;;25.10;99.30;;;;;;5049708;28;20366;-46
2022/06/08 12:03:35;;;;;;;1.27;0.40;;;24.60;98.70;;;;;;5053719;28;20682;-46
2022/06/08 12:06:07;;;;;;;1.03;0.50;;;24.60;97.40;;;;;;5049332;28;20255;-46
2022/06/08 12:08:38;;;;;;;0.50;0.50;;;24.50;97.40;;;;;;5053605;28;20656;-46
2022/06/08 12:11:06;;;;;;;2.83;0.87;;;24.60;98.70;;;;;;5051215;28;20233;-46
2022/06/08 12:13:34;;;;;;;0.50;0.50;;;24.50;97.00;;;;;;5052280;28;20198;-47
2022/06/08 12:16:06;;;;;;;4.47;0.60;;;24.60;97.10;;;;;;5049041;28;20630;-46
2022/06/08 12:18:44;;;;;;;1.23;0.50;;;24.70;96.80;;;;;;5052203;28;20209;-46
2022/06/08 12:21:24;;;;;;;1.90;0.30;;;24.70;96.10;;;;;;5032791;28;20225;-46
2022/06/08 12:24:23;;;;;;;0.60;0.30;;;24.50;98.30;;;;;;5032953;28;20602;-45
2022/06/08 12:27:17;;;;;;;1.57;0.53;;;24.10;97.50;;;;;;5044820;28;20206;-46
2022/06/08 12:29:55;;;;;;;1.70;0.40;;;24.00;98.60;;;;;;5048505;28;20209;-46
2022/06/08 12:32:27;;;;;;;0.67;0.40;;;24.20;99.90;;;;;;5051741;28;20714;-46
2022/06/08 12:35:28;;;;;;;2.50;0.40;;;24.10;98.20;;;;;;5051546;28;20198;-46
2022/06/08 12:38:17;;;;;;;0.53;0.40;;;23.90;97.20;;;;;;5049863;28;20224;-46
2022/06/08 12:40:58;;;;;;;1.20;0.40;;;23.70;98.20;;;;;;5051188;28;20217;-46
2022/06/08 12:43:36;;;;;;;2.00;0.30;;;23.80;99.90;;;;;;5040712;28;20198;-46
2022/06/08 12:46:24;;;;;;;0.83;0.37;;;23.60;99.40;;;;;;5042346;28;20202;-46
2022/06/08 12:49:04;;;;;;;1.13;0.80;;;23.50;97.10;;;;;;5049582;28;20204;-47
2022/06/08 12:51:40;;;;;;;0.70;0.50;;;23.50;98.60;;;;;;5051338;28;20307;-46
2022/06/08 12:54:17;;;;;;;3.30;0.30;;;23.70;98.90;;;;;;5051770;28;20601;-46
2022/06/08 12:56:46;;;;;;;0.50;0.50;;;23.70;97.90;;;;;;5047890;28;20209;-46
2022/06/08 12:59:15;;;;;;;4.83;1.27;;;23.90;99.00;;;;;;5048553;28;20252;-46
2022/06/08 13:01:44;;;;;;;0.40;0.40;;;24.10;99.40;;;;;;5032034;28;20623;-47
2022/06/08 13:04:13;;;;;;;2.43;0.43;;;24.40;99.50;;;;;;5033111;28;20203;-46
2022/06/08 13:06:40;;;;;;;0.77;0.30;;;24.20;97.00;;;;;;5046711;28;20248;-47
2022/06/08 13:09:10;;;;;;;1.17;0.30;;;24.40;99.60;;;;;;5086986;22;20236;-51
2022/06/08 13:11:37;;;;;;;2.37;0.60;;;24.40;99.20;;;;;;5065930;28;20678;-50
2022/06/08 13:14:05;;;;;;;1.73;0.50;;;24.60;99.10;;;;;;5065776;28;20206;-51
2022/06/08 13:16:32;;;;;;;0.60;0.50;;;24.50;98.20;;;;;;5066755;28;20205;-51
2022/06/08 13:19:01;;;;;;;0.50;0.50;;;24.70;99.50;;;;;;5069806;28;20247;-51
2022/06/08 13:21:28;;;;;;;1.30;0.43;;;24.90;97.30;;;;;;5071073;28;20204;-50
2022/06/08 13:23:55;;;;;;;2.70;0.30;;;24.80;99.90;;;;;;5071344;28;20197;-50
2022/06/08 13:26:24;;;;;;;0.50;0.40;;;24.50;97.70;;;;;;5067436;28;20228;-51
2022/06/08 13:28:53;;;;;;;0.57;0.40;;;24.30;96.40;;;;;;5071079;28;20304;-51
2022/06/08 13:31:24;;;;;;;0.30;0.30;;;24.20;97.70;;;;;;5070929;28;20205;-50